Time;durP1;ratioP1;P1;durP2;ratioP2;P2;SDS_P1;SDS_P2;PMS_P1;PMS_P2;Temp;Humidity;BMP_temperature;BMP_pressure;BME280_temperature;BME280_humidity;BME280_pressure;Samples;Min_cycle;Max_cycle;Signal;HPM_P1;HPM_P2
2021/05/25 00:01:50;;;;;;;0.70;0.57;;;9.50;99.90;;;;;;5031133;28;20207;-76
2021/05/25 00:04:16;;;;;;;1.50;0.70;;;9.40;99.90;;;;;;5030822;28;20441;-76
2021/05/25 00:06:41;;;;;;;2.10;0.60;;;9.30;99.90;;;;;;5031371;28;20767;-77
2021/05/25 00:09:07;;;;;;;0.60;0.60;;;9.30;99.90;;;;;;5017613;28;20209;-75
2021/05/25 00:11:32;;;;;;;1.97;1.00;;;9.30;99.90;;;;;;5034988;28;20965;-77
2021/05/25 00:13:59;;;;;;;1.20;0.70;;;9.20;99.90;;;;;;5016540;28;20181;-76
2021/05/25 00:16:24;;;;;;;0.97;0.67;;;9.20;99.90;;;;;;5034612;28;20187;-77
2021/05/25 00:18:50;;;;;;;0.80;0.50;;;9.10;99.90;;;;;;5034745;28;20483;-76
2021/05/25 00:21:15;;;;;;;0.70;0.57;;;9.10;99.90;;;;;;5016912;28;20198;-76
2021/05/25 00:23:41;;;;;;;8.00;0.80;;;9.10;99.90;;;;;;5034502;28;20184;-76
2021/05/25 00:26:06;;;;;;;4.10;0.93;;;9.00;99.90;;;;;;5034540;28;20209;-75
2021/05/25 00:28:32;;;;;;;0.60;0.60;;;8.90;99.90;;;;;;5034713;28;20259;-79
2021/05/25 00:30:57;;;;;;;1.97;0.50;;;8.90;99.90;;;;;;5034720;28;20210;-76
2021/05/25 00:33:23;;;;;;;1.40;0.63;;;8.90;99.90;;;;;;5033970;28;20262;-77
2021/05/25 00:35:50;;;;;;;2.57;0.83;;;8.90;99.90;;;;;;5034556;28;20175;-79
2021/05/25 00:38:16;;;;;;;1.70;0.50;;;8.90;99.90;;;;;;5034295;28;20704;-76
2021/05/25 00:40:41;;;;;;;1.57;0.50;;;8.80;99.90;;;;;;5034493;28;20413;-76
2021/05/25 00:43:07;;;;;;;2.00;0.60;;;8.80;99.90;;;;;;5033927;28;20184;-77
2021/05/25 00:45:33;;;;;;;0.60;0.60;;;8.80;99.90;;;;;;5034161;28;20189;-76
2021/05/25 00:47:58;;;;;;;1.90;0.90;;;8.80;99.90;;;;;;5034235;28;20253;-76
2021/05/25 00:50:27;;;;;;;0.93;0.53;;;8.80;99.90;;;;;;5016533;28;20638;-76
2021/05/25 00:52:55;;;;;;;0.60;0.60;;;8.70;99.90;;;;;;5034155;28;20179;-76
2021/05/25 00:55:24;;;;;;;1.37;0.80;;;8.70;99.90;;;;;;5033572;28;20447;-76
2021/05/25 00:57:51;;;;;;;3.53;0.80;;;8.70;99.90;;;;;;5033872;28;20451;-75
2021/05/25 01:00:21;;;;;;;1.43;0.60;;;8.70;99.90;;;;;;5034102;28;20497;-76
2021/05/25 01:02:46;;;;;;;1.10;0.60;;;8.60;99.90;;;;;;5033484;28;20431;-78
2021/05/25 01:05:15;;;;;;;0.70;0.70;;;8.60;99.90;;;;;;5033980;28;20414;-76
2021/05/25 01:07:41;;;;;;;0.70;0.70;;;8.60;99.90;;;;;;5033895;28;20212;-76
2021/05/25 01:10:09;;;;;;;3.43;0.80;;;8.60;99.90;;;;;;5016456;28;20553;-77
2021/05/25 01:12:40;;;;;;;3.33;0.77;;;8.70;99.90;;;;;;5033368;28;20432;-76
2021/05/25 01:15:07;;;;;;;1.90;0.80;;;8.60;99.90;;;;;;5033793;28;20443;-77
2021/05/25 01:17:33;;;;;;;1.53;1.00;;;8.60;99.90;;;;;;5015745;28;20547;-76
2021/05/25 01:20:00;;;;;;;1.80;0.57;;;8.60;99.90;;;;;;5032886;28;20554;-76
2021/05/25 01:22:27;;;;;;;0.80;0.73;;;8.60;99.90;;;;;;5033721;28;20179;-80
2021/05/25 01:24:52;;;;;;;0.60;0.60;;;8.60;99.90;;;;;;5015377;28;20717;-76
2021/05/25 01:27:18;;;;;;;0.60;0.60;;;8.60;99.90;;;;;;5033378;28;20472;-77
2021/05/25 01:29:44;;;;;;;4.40;0.90;;;8.60;99.90;;;;;;5033421;28;20189;-78
2021/05/25 01:32:09;;;;;;;5.30;1.00;;;8.60;99.90;;;;;;5033557;28;20204;-76
2021/05/25 01:34:36;;;;;;;1.90;0.60;;;8.60;99.90;;;;;;5015353;28;20206;-76
2021/05/25 01:37:03;;;;;;;2.73;0.80;;;8.50;99.90;;;;;;5033524;28;20666;-76
2021/05/25 01:39:29;;;;;;;2.30;0.87;;;8.60;99.90;;;;;;5033702;28;20452;-78
2021/05/25 01:41:55;;;;;;;3.80;0.80;;;8.60;99.90;;;;;;5033362;28;20445;-76
2021/05/25 01:44:20;;;;;;;1.80;1.03;;;8.60;99.90;;;;;;5015262;28;20429;-76
2021/05/25 01:46:47;;;;;;;0.50;0.50;;;8.60;99.90;;;;;;5033071;28;20694;-76
2021/05/25 01:49:16;;;;;;;1.50;0.80;;;8.60;99.90;;;;;;5033296;28;20413;-76
2021/05/25 01:51:50;;;;;;;3.27;0.63;;;8.60;99.90;;;;;;5033667;28;20909;-76
2021/05/25 01:54:17;;;;;;;1.70;0.80;;;8.60;99.90;;;;;;5032867;28;20418;-78
2021/05/25 01:56:43;;;;;;;0.70;0.70;;;8.60;99.90;;;;;;5032790;28;20463;-76
2021/05/25 01:59:09;;;;;;;2.37;1.10;;;8.60;99.90;;;;;;5033115;28;20909;-77
2021/05/25 02:01:35;;;;;;;1.40;0.70;;;8.60;99.90;;;;;;5032943;28;20464;-76
2021/05/25 02:04:00;;;;;;;1.00;0.70;;;8.60;99.90;;;;;;5033068;28;20455;-76
2021/05/25 02:06:26;;;;;;;1.87;0.83;;;8.60;99.90;;;;;;5032202;28;21058;-79
2021/05/25 02:08:52;;;;;;;3.30;0.93;;;8.50;99.90;;;;;;5033048;28;20180;-76
2021/05/25 02:11:18;;;;;;;1.20;0.60;;;8.50;99.90;;;;;;5032833;28;20177;-77
2021/05/25 02:13:43;;;;;;;6.63;0.77;;;8.50;99.90;;;;;;5032851;28;20267;-76
2021/05/25 02:16:11;;;;;;;0.60;0.60;;;8.50;99.90;;;;;;5032404;28;20188;-78
2021/05/25 02:18:44;;;;;;;0.70;0.60;;;8.50;99.90;;;;;;5015237;28;20669;-76
2021/05/25 02:21:11;;;;;;;1.53;0.70;;;8.60;99.90;;;;;;5032661;28;20513;-76
2021/05/25 02:23:37;;;;;;;1.63;0.70;;;8.60;99.90;;;;;;5032730;28;20429;-76
2021/05/25 02:26:04;;;;;;;2.37;0.70;;;8.70;99.90;;;;;;5032373;28;20964;-76
2021/05/25 02:28:29;;;;;;;1.10;1.00;;;8.70;99.90;;;;;;5032502;28;20932;-76
2021/05/25 02:30:55;;;;;;;2.13;0.80;;;8.70;99.90;;;;;;5015008;28;20478;-76
2021/05/25 02:33:22;;;;;;;1.80;0.60;;;8.60;99.90;;;;;;5014680;28;20183;-75
2021/05/25 02:35:50;;;;;;;4.50;0.77;;;8.60;99.90;;;;;;5032230;28;20202;-76
2021/05/25 02:38:16;;;;;;;1.37;0.70;;;8.50;99.90;;;;;;5032410;28;20976;-76
2021/05/25 02:40:44;;;;;;;2.70;0.70;;;8.50;99.90;;;;;;5014373;28;20877;-75
2021/05/25 02:43:11;;;;;;;2.40;0.70;;;8.50;99.90;;;;;;5032315;28;20478;-76
2021/05/25 02:45:37;;;;;;;1.23;0.77;;;8.40;99.90;;;;;;5032112;28;20430;-77
2021/05/25 02:48:03;;;;;;;3.23;1.00;;;8.40;99.90;;;;;;5032167;28;20430;-76
2021/05/25 02:50:29;;;;;;;1.83;0.70;;;8.40;99.90;;;;;;5032112;28;20524;-79
2021/05/25 02:52:55;;;;;;;1.90;0.70;;;8.30;99.90;;;;;;5014010;28;20888;-76
2021/05/25 02:55:24;;;;;;;2.33;0.70;;;8.30;99.90;;;;;;5031697;28;20475;-77
2021/05/25 02:57:50;;;;;;;1.27;0.70;;;8.30;99.90;;;;;;5031683;28;20281;-79
2021/05/25 03:00:27;;;;;;;1.17;0.60;;;8.30;99.90;;;;;;5032097;28;20787;-79
2021/05/25 03:02:53;;;;;;;2.37;0.80;;;8.30;99.90;;;;;;5031802;28;20732;-76
2021/05/25 03:05:22;;;;;;;1.67;0.73;;;8.30;99.90;;;;;;5031691;28;20503;-77
2021/05/25 03:07:48;;;;;;;3.50;0.83;;;8.20;99.90;;;;;;5031919;28;20455;-79
2021/05/25 03:10:16;;;;;;;1.10;0.87;;;8.20;99.90;;;;;;5014081;28;20427;-76
2021/05/25 03:12:42;;;;;;;1.00;0.73;;;8.20;99.90;;;;;;5031804;28;20184;-74
2021/05/25 03:15:11;;;;;;;1.27;0.80;;;8.20;99.90;;;;;;5032208;28;20942;-76
2021/05/25 03:17:37;;;;;;;1.30;0.50;;;8.20;99.90;;;;;;5031502;28;20200;-77
2021/05/25 03:20:05;;;;;;;3.10;1.00;;;8.20;99.90;;;;;;5031658;28;20792;-78
2021/05/25 03:22:30;;;;;;;2.77;0.90;;;8.10;99.90;;;;;;5031627;28;20222;-75
2021/05/25 03:24:56;;;;;;;2.00;0.60;;;8.10;99.90;;;;;;5013973;28;20412;-76
2021/05/25 03:27:21;;;;;;;2.53;0.80;;;8.10;99.90;;;;;;5031458;28;20214;-76
2021/05/25 03:29:47;;;;;;;3.27;1.03;;;8.00;99.90;;;;;;5031727;28;20179;-76
2021/05/25 03:32:12;;;;;;;1.47;0.60;;;8.00;99.90;;;;;;5030923;28;20188;-76
2021/05/25 03:34:38;;;;;;;4.10;0.97;;;8.00;99.90;;;;;;5013722;28;20208;-76
2021/05/25 03:37:04;;;;;;;1.93;0.70;;;8.00;99.90;;;;;;5031438;28;20211;-78
2021/05/25 03:39:29;;;;;;;1.03;0.60;;;8.00;99.90;;;;;;5031301;28;20184;-76
2021/05/25 03:41:58;;;;;;;1.70;0.70;;;8.00;99.90;;;;;;5030581;28;20227;-76
2021/05/25 03:44:24;;;;;;;4.07;0.57;;;7.90;99.90;;;;;;5031157;28;20199;-76
2021/05/25 03:46:49;;;;;;;2.90;0.70;;;8.00;99.90;;;;;;5031115;28;20508;-76
2021/05/25 03:49:15;;;;;;;1.00;0.50;;;8.00;99.90;;;;;;5031630;28;20683;-75
2021/05/25 03:51:40;;;;;;;3.50;0.60;;;8.00;99.90;;;;;;5030575;28;20260;-76
2021/05/25 03:54:12;;;;;;;1.47;0.60;;;8.00;99.90;;;;;;5030953;28;20295;-75
2021/05/25 03:56:54;;;;;;;0.80;0.50;;;8.00;99.90;;;;;;5031160;28;20204;-76
2021/05/25 03:59:20;;;;;;;0.50;0.47;;;8.00;99.90;;;;;;5031249;28;20425;-76
2021/05/25 04:01:45;;;;;;;5.93;0.60;;;8.10;99.90;;;;;;5030775;28;20851;-78
2021/05/25 04:04:11;;;;;;;3.10;0.60;;;8.10;99.90;;;;;;5031141;28;20234;-77
2021/05/25 04:06:38;;;;;;;3.90;0.80;;;8.20;99.90;;;;;;5030790;28;20304;-76
2021/05/25 04:09:05;;;;;;;1.57;0.60;;;8.20;99.90;;;;;;5031267;28;20409;-76
2021/05/25 04:11:31;;;;;;;2.73;0.60;;;8.30;99.90;;;;;;5031673;28;20432;-75
2021/05/25 04:13:57;;;;;;;1.87;0.80;;;8.40;99.90;;;;;;5031294;28;20932;-73
2021/05/25 04:16:22;;;;;;;1.23;0.50;;;8.50;99.90;;;;;;5030882;28;20433;-74
2021/05/25 04:18:48;;;;;;;0.80;0.60;;;8.50;99.90;;;;;;5013323;28;20175;-74
2021/05/25 04:21:14;;;;;;;2.03;0.80;;;8.60;99.90;;;;;;5030817;28;20185;-74
2021/05/25 04:23:39;;;;;;;1.23;0.60;;;8.60;99.90;;;;;;5030552;28;20262;-74
2021/05/25 04:26:05;;;;;;;1.53;0.60;;;8.60;99.90;;;;;;5031002;28;20208;-73
2021/05/25 04:28:30;;;;;;;2.77;0.60;;;8.60;99.90;;;;;;5030618;28;20194;-73
2021/05/25 04:30:56;;;;;;;3.50;0.70;;;8.70;99.90;;;;;;5030488;28;20695;-74
2021/05/25 04:33:22;;;;;;;0.67;0.67;;;8.70;99.90;;;;;;5030423;28;20241;-74
2021/05/25 04:35:47;;;;;;;0.80;0.50;;;8.70;99.90;;;;;;5013032;28;20185;-74
2021/05/25 04:38:14;;;;;;;1.20;0.70;;;8.70;99.90;;;;;;5030675;28;20310;-74
2021/05/25 04:40:41;;;;;;;0.40;0.40;;;8.70;99.90;;;;;;5027472;28;20222;-72
2021/05/25 04:43:07;;;;;;;3.43;0.50;;;8.60;99.90;;;;;;5029767;28;20438;-74
2021/05/25 04:45:33;;;;;;;1.50;0.50;;;8.60;99.90;;;;;;5027518;28;20413;-74
2021/05/25 04:47:58;;;;;;;2.03;0.53;;;8.60;99.90;;;;;;5030625;28;20789;-75
2021/05/25 04:50:24;;;;;;;2.67;0.50;;;8.60;99.90;;;;;;5030195;28;20259;-76
2021/05/25 04:52:50;;;;;;;0.60;0.60;;;8.60;99.90;;;;;;5030474;28;20184;-74
2021/05/25 04:55:19;;;;;;;0.90;0.60;;;8.70;99.90;;;;;;5033208;28;20692;-74
2021/05/25 04:57:44;;;;;;;2.60;0.57;;;8.80;99.90;;;;;;5034195;28;20442;-74
2021/05/25 05:00:13;;;;;;;1.83;0.50;;;8.80;99.90;;;;;;5034346;28;20424;-73
2021/05/25 05:02:38;;;;;;;0.60;0.50;;;8.90;99.90;;;;;;5033715;28;20200;-73
2021/05/25 05:05:06;;;;;;;0.60;0.60;;;9.00;99.90;;;;;;5033925;28;20495;-74
2021/05/25 05:07:31;;;;;;;0.50;0.50;;;9.10;99.90;;;;;;5016148;28;20237;-74
2021/05/25 05:09:57;;;;;;;1.23;0.60;;;9.10;99.90;;;;;;5016296;28;20557;-74
2021/05/25 05:12:22;;;;;;;2.00;0.50;;;9.10;99.90;;;;;;5028835;28;20680;-74
2021/05/25 05:14:48;;;;;;;1.67;0.70;;;9.20;99.90;;;;;;5023068;28;20267;-73
2021/05/25 05:17:14;;;;;;;1.20;0.40;;;10.30;99.90;;;;;;5013160;28;20215;-74
2021/05/25 05:19:39;;;;;;;0.60;0.40;;;11.10;99.90;;;;;;5033416;28;20247;-72
2021/05/25 05:22:05;;;;;;;0.60;0.40;;;11.60;99.90;;;;;;5033134;28;20184;-73
2021/05/25 05:24:31;;;;;;;4.03;0.60;;;11.30;99.90;;;;;;5027591;28;20189;-74
2021/05/25 05:26:56;;;;;;;0.83;0.63;;;11.50;99.90;;;;;;5033348;28;20757;-72
2021/05/25 05:29:22;;;;;;;0.80;0.43;;;12.00;99.90;;;;;;5027208;28;20200;-72
2021/05/25 05:31:47;;;;;;;5.10;0.70;;;12.20;99.90;;;;;;5019367;28;20183;-75
2021/05/25 05:34:13;;;;;;;1.63;0.60;;;12.40;99.90;;;;;;5013360;28;20175;-74
2021/05/25 05:36:39;;;;;;;0.90;0.60;;;12.20;99.90;;;;;;5013259;28;20202;-74
2021/05/25 05:39:05;;;;;;;0.50;0.50;;;12.40;99.90;;;;;;5027135;28;20174;-73
2021/05/25 05:41:31;;;;;;;1.37;0.50;;;12.30;99.90;;;;;;5014604;28;20774;-74
2021/05/25 05:43:57;;;;;;;0.93;0.53;;;12.50;99.90;;;;;;5015078;28;20497;-74
2021/05/25 05:46:24;;;;;;;1.13;0.50;;;12.80;99.90;;;;;;5032453;28;20204;-74
2021/05/25 05:48:50;;;;;;;0.50;0.47;;;13.00;99.90;;;;;;5032509;28;20851;-74
2021/05/25 05:51:16;;;;;;;0.70;0.50;;;12.70;99.90;;;;;;5032242;28;20450;-74
2021/05/25 05:53:41;;;;;;;1.27;0.50;;;12.90;99.90;;;;;;5032352;28;20428;-74
2021/05/25 05:56:07;;;;;;;0.50;0.50;;;12.50;99.90;;;;;;5032632;28;20210;-74
2021/05/25 05:58:32;;;;;;;0.40;0.40;;;12.20;99.90;;;;;;5033065;28;20177;-74
2021/05/25 06:00:58;;;;;;;1.67;0.50;;;11.90;99.90;;;;;;5032959;28;20174;-74
2021/05/25 06:03:23;;;;;;;0.60;0.50;;;11.70;99.90;;;;;;5032036;28;20192;-74
2021/05/25 06:05:49;;;;;;;0.73;0.40;;;11.50;99.90;;;;;;5031892;28;20205;-74
2021/05/25 06:08:15;;;;;;;1.60;0.50;;;11.30;99.90;;;;;;5012871;28;20198;-76
2021/05/25 06:10:44;;;;;;;0.83;0.60;;;11.60;99.90;;;;;;5012661;28;20206;-76
2021/05/25 06:13:10;;;;;;;0.50;0.47;;;11.90;99.90;;;;;;5027999;28;20424;-76
2021/05/25 06:15:37;;;;;;;3.17;0.50;;;12.40;99.90;;;;;;5032133;28;20905;-79
2021/05/25 06:18:03;;;;;;;0.50;0.50;;;12.70;99.90;;;;;;5026578;28;20205;-75
2021/05/25 06:20:28;;;;;;;0.60;0.50;;;13.20;99.90;;;;;;5021587;28;20421;-75
2021/05/25 06:22:54;;;;;;;1.80;0.63;;;13.50;99.90;;;;;;5021188;28;20675;-76
2021/05/25 06:25:21;;;;;;;2.50;0.40;;;14.10;99.90;;;;;;5025675;28;20197;-76
2021/05/25 06:27:46;;;;;;;2.30;0.60;;;14.10;99.90;;;;;;5026369;28;20591;-75
2021/05/25 06:30:13;;;;;;;1.83;0.60;;;13.40;99.90;;;;;;5016606;28;20418;-76
2021/05/25 06:32:38;;;;;;;1.40;0.50;;;13.30;99.90;;;;;;5022893;28;20695;-76
2021/05/25 06:35:05;;;;;;;1.73;0.60;;;13.00;99.90;;;;;;5031914;28;20527;-76
2021/05/25 06:37:31;;;;;;;2.60;0.70;;;12.80;99.90;;;;;;5031543;28;20623;-75
2021/05/25 06:39:57;;;;;;;0.50;0.47;;;12.60;99.90;;;;;;5032171;28;20442;-74
2021/05/25 06:42:23;;;;;;;0.50;0.40;;;12.90;99.90;;;;;;5031418;28;20190;-74
2021/05/25 06:44:48;;;;;;;0.60;0.50;;;13.20;99.90;;;;;;5014371;28;20221;-73
2021/05/25 06:47:14;;;;;;;0.60;0.60;;;13.50;99.90;;;;;;5014191;28;20474;-74
2021/05/25 06:49:39;;;;;;;0.60;0.50;;;13.50;99.90;;;;;;5010449;28;20188;-73
2021/05/25 06:52:06;;;;;;;0.90;0.70;;;13.60;99.90;;;;;;5028891;28;20189;-73
2021/05/25 06:54:33;;;;;;;3.80;0.80;;;14.10;99.90;;;;;;5028735;28;20632;-74
2021/05/25 06:56:58;;;;;;;1.20;0.50;;;14.60;99.90;;;;;;5031374;28;20968;-73
2021/05/25 06:59:24;;;;;;;1.07;0.50;;;14.70;99.90;;;;;;5031563;28;20420;-76
2021/05/25 07:01:50;;;;;;;0.40;0.30;;;14.90;99.90;;;;;;5031280;28;20269;-74
2021/05/25 07:04:15;;;;;;;1.90;0.40;;;14.50;99.90;;;;;;5021415;28;20186;-74
2021/05/25 07:06:41;;;;;;;0.90;0.50;;;14.30;99.90;;;;;;5030979;28;20216;-74
2021/05/25 07:09:06;;;;;;;0.80;0.50;;;13.80;99.90;;;;;;5031757;28;20667;-75
2021/05/25 07:11:32;;;;;;;1.63;0.40;;;13.70;99.90;;;;;;5023897;28;20887;-74
2021/05/25 07:13:58;;;;;;;1.03;0.40;;;13.50;99.90;;;;;;5030231;28;20223;-75
2021/05/25 07:16:24;;;;;;;5.40;1.43;;;13.40;99.90;;;;;;5031275;28;20174;-74
2021/05/25 07:18:49;;;;;;;0.90;0.50;;;13.40;99.90;;;;;;5013839;28;20554;-74
2021/05/25 07:21:15;;;;;;;0.60;0.50;;;13.40;99.90;;;;;;5013273;28;20429;-74
2021/05/25 07:23:41;;;;;;;1.33;0.50;;;13.60;99.90;;;;;;5013360;28;20196;-72
2021/05/25 07:26:06;;;;;;;1.23;0.50;;;13.90;99.90;;;;;;5013338;28;20592;-75
2021/05/25 07:28:32;;;;;;;1.67;0.60;;;13.90;99.90;;;;;;5031156;28;20698;-75
2021/05/25 07:30:58;;;;;;;1.17;0.40;;;13.70;99.90;;;;;;5031216;28;20170;-75
2021/05/25 07:33:26;;;;;;;3.90;0.90;;;13.70;99.90;;;;;;5019122;28;20418;-74
2021/05/25 07:35:51;;;;;;;1.37;0.53;;;13.70;99.90;;;;;;5011665;28;20174;-73
2021/05/25 07:38:17;;;;;;;0.70;0.50;;;13.90;99.90;;;;;;5011177;28;20440;-74
2021/05/25 07:40:43;;;;;;;3.07;1.33;;;14.00;99.90;;;;;;5013106;28;20794;-74
2021/05/25 07:43:09;;;;;;;1.30;0.40;;;13.90;99.90;;;;;;5030908;28;20193;-74
2021/05/25 07:45:35;;;;;;;0.80;0.40;;;13.70;99.90;;;;;;5030926;28;20721;-75
2021/05/25 07:48:00;;;;;;;5.60;0.50;;;13.70;99.90;;;;;;5013382;28;20444;-74
2021/05/25 07:50:26;;;;;;;1.60;0.60;;;14.10;99.90;;;;;;5012975;28;20185;-73
2021/05/25 07:52:55;;;;;;;1.47;0.50;;;14.20;99.90;;;;;;5013094;28;20464;-73
2021/05/25 07:55:24;;;;;;;1.13;0.60;;;14.00;99.90;;;;;;5030419;28;20190;-74
2021/05/25 07:57:51;;;;;;;2.00;0.40;;;13.80;99.90;;;;;;5013306;28;20981;-74
2021/05/25 08:00:17;;;;;;;2.47;0.60;;;13.60;99.90;;;;;;5030982;28;20412;-73
2021/05/25 08:02:43;;;;;;;1.83;0.60;;;13.60;99.90;;;;;;5030502;28;20439;-72
2021/05/25 08:05:11;;;;;;;2.53;0.60;;;13.70;99.90;;;;;;5013144;28;20478;-73
2021/05/25 08:07:37;;;;;;;2.40;0.50;;;14.00;99.90;;;;;;5030823;28;20638;-74
2021/05/25 08:10:05;;;;;;;2.73;0.90;;;14.00;99.90;;;;;;5031153;28;20419;-74
2021/05/25 08:12:32;;;;;;;1.23;0.60;;;14.50;99.90;;;;;;5012816;28;20428;-74
2021/05/25 08:14:59;;;;;;;0.83;0.50;;;14.80;99.90;;;;;;5031037;28;20416;-75
2021/05/25 08:20:17;;;;;;;1.70;0.70;;;16.20;99.90;;;;;;5030992;28;20439;-74
2021/05/25 08:22:44;;;;;;;1.87;0.50;;;16.90;99.90;;;;;;5030772;28;20436;-73
2021/05/25 08:25:11;;;;;;;4.33;0.60;;;17.20;99.90;;;;;;5030901;28;20914;-75
2021/05/25 08:27:37;;;;;;;1.67;0.50;;;17.40;99.90;;;;;;5013335;28;20551;-74
2021/05/25 08:30:05;;;;;;;3.33;0.73;;;17.10;99.90;;;;;;5034922;28;20425;-74
2021/05/25 08:32:31;;;;;;;5.80;0.60;;;17.10;99.90;;;;;;5034350;28;20474;-75
2021/05/25 08:34:57;;;;;;;1.53;0.40;;;17.40;99.90;;;;;;5034422;28;20404;-74
2021/05/25 08:37:22;;;;;;;0.67;0.40;;;17.40;99.90;;;;;;5034140;28;20636;-75
2021/05/25 08:39:48;;;;;;;2.57;1.03;;;16.90;99.90;;;;;;5034212;28;20182;-75
2021/05/25 08:42:14;;;;;;;1.00;0.60;;;16.40;99.90;;;;;;5034260;28;20272;-75
2021/05/25 08:44:39;;;;;;;0.80;0.50;;;16.00;99.90;;;;;;5033779;28;20666;-74
2021/05/25 08:47:06;;;;;;;1.60;0.60;;;15.40;99.90;;;;;;5034119;28;20214;-74
2021/05/25 08:49:34;;;;;;;1.20;0.50;;;15.20;99.90;;;;;;5033834;28;20256;-75
2021/05/25 08:52:00;;;;;;;1.03;0.40;;;15.60;99.90;;;;;;5034217;28;20413;-74
2021/05/25 08:54:26;;;;;;;0.47;0.47;;;15.60;99.90;;;;;;5016010;28;21068;-75
2021/05/25 08:56:52;;;;;;;1.80;0.60;;;15.50;99.90;;;;;;5031316;28;20219;-74
2021/05/25 08:59:17;;;;;;;1.63;0.50;;;15.40;99.90;;;;;;5024579;28;21215;-73
2021/05/25 09:01:43;;;;;;;0.60;0.60;;;15.70;99.90;;;;;;5022062;28;20192;-74
2021/05/25 09:04:12;;;;;;;0.50;0.50;;;16.00;99.90;;;;;;5025208;28;20222;-74
2021/05/25 09:06:46;;;;;;;3.90;0.93;;;16.10;99.90;;;;;;5023009;28;20469;-74
2021/05/25 09:09:16;;;;;;;1.83;0.50;;;16.10;99.90;;;;;;5015123;28;20441;-74
2021/05/25 09:12:09;;;;;;;1.77;0.60;;;16.10;99.90;;;;;;5029316;28;20434;-75
2021/05/25 09:14:51;;;;;;;4.43;0.70;;;15.80;99.90;;;;;;5013478;28;20420;-74
2021/05/25 09:17:16;;;;;;;1.87;0.60;;;15.20;99.90;;;;;;5013588;28;20440;-75
2021/05/25 09:19:47;;;;;;;4.23;2.20;;;14.70;99.90;;;;;;5013786;28;20429;-74
2021/05/25 09:22:35;;;;;;;1.13;0.90;;;14.60;99.90;;;;;;5027142;28;20268;-74
2021/05/25 09:25:22;;;;;;;2.40;0.80;;;14.60;99.90;;;;;;5003894;28;20844;-74
2021/05/25 09:28:00;;;;;;;1.93;1.00;;;14.60;99.90;;;;;;5024439;28;20512;-73
2021/05/25 09:30:29;;;;;;;1.90;1.30;;;14.40;99.90;;;;;;5022868;28;20433;-74
2021/05/25 09:33:01;;;;;;;2.07;1.07;;;14.10;99.90;;;;;;5021417;28;20436;-73
2021/05/25 09:35:32;;;;;;;1.27;0.60;;;13.90;99.90;;;;;;5003405;28;20508;-75
2021/05/25 09:38:01;;;;;;;5.50;1.13;;;13.70;99.90;;;;;;5021546;28;20434;-74
2021/05/25 09:40:29;;;;;;;5.20;1.07;;;13.70;99.90;;;;;;5020582;28;20433;-73
2021/05/25 09:43:08;;;;;;;0.80;0.80;;;13.80;99.90;;;;;;5020664;28;20984;-74
2021/05/25 09:45:35;;;;;;;1.47;0.60;;;13.80;99.90;;;;;;5026216;28;20460;-74
2021/05/25 09:48:03;;;;;;;1.83;0.60;;;13.70;99.90;;;;;;5021710;28;20514;-74
2021/05/25 09:50:29;;;;;;;3.53;0.80;;;13.60;99.90;;;;;;5022543;28;20410;-74
2021/05/25 09:53:11;;;;;;;3.50;0.70;;;14.40;99.90;;;;;;5012190;28;20409;-74
2021/05/25 09:55:49;;;;;;;2.23;0.80;;;15.00;99.90;;;;;;5014892;28;20203;-73
2021/05/25 09:58:15;;;;;;;2.10;0.80;;;16.10;99.90;;;;;;5032662;28;20423;-73
2021/05/25 10:00:43;;;;;;;1.50;1.00;;;16.70;99.90;;;;;;5032123;28;21131;-74
2021/05/25 10:03:14;;;;;;;3.80;0.60;;;16.50;99.90;;;;;;5014871;28;20469;-74
2021/05/25 10:05:44;;;;;;;1.40;0.80;;;16.30;99.90;;;;;;5025288;28;20491;-74
2021/05/25 10:08:10;;;;;;;2.30;1.40;;;16.20;99.90;;;;;;5030808;28;20440;-73
2021/05/25 10:10:36;;;;;;;3.60;0.80;;;16.00;99.90;;;;;;5032121;28;20720;-76
2021/05/25 10:13:02;;;;;;;3.00;0.70;;;15.90;99.90;;;;;;5032488;28;20464;-74
2021/05/25 10:15:28;;;;;;;0.60;0.50;;;15.70;99.90;;;;;;5032341;28;20459;-73
2021/05/25 10:18:09;;;;;;;5.60;2.20;;;15.90;99.90;;;;;;5031738;28;20534;-74
2021/05/25 10:20:35;;;;;;;3.80;1.17;;;15.60;99.90;;;;;;5030540;28;20181;-73
2021/05/25 10:23:00;;;;;;;1.00;0.50;;;16.40;99.90;;;;;;5024013;28;20554;-74
2021/05/25 10:25:31;;;;;;;2.10;0.70;;;16.80;99.90;;;;;;5013039;28;20182;-73
2021/05/25 10:27:57;;;;;;;1.63;0.87;;;17.40;99.90;;;;;;5016678;28;20284;-73
2021/05/25 10:30:26;;;;;;;2.87;0.60;;;17.00;99.90;;;;;;5023278;28;20417;-72
2021/05/25 10:33:04;;;;;;;1.70;0.77;;;16.40;99.90;;;;;;5031750;28;20432;-72
2021/05/25 10:35:49;;;;;;;2.10;0.70;;;15.50;99.90;;;;;;5031510;28;20425;-72
2021/05/25 10:38:14;;;;;;;1.80;0.60;;;14.80;99.90;;;;;;5029435;28;20440;-73
2021/05/25 10:40:45;;;;;;;1.57;0.63;;;14.20;99.90;;;;;;5032292;28;20413;-74
2021/05/25 10:43:30;;;;;;;0.70;0.60;;;13.50;99.90;;;;;;5031412;28;20185;-73
2021/05/25 10:46:11;;;;;;;2.33;0.60;;;13.50;99.90;;;;;;5013162;28;20781;-73
2021/05/25 10:48:50;;;;;;;1.30;0.80;;;13.30;99.90;;;;;;5032974;28;20424;-73
2021/05/25 10:51:16;;;;;;;3.47;0.87;;;13.20;99.90;;;;;;5032514;28;20424;-73
2021/05/25 10:53:41;;;;;;;2.77;0.83;;;13.20;99.90;;;;;;5033489;28;20516;-73
2021/05/25 10:56:26;;;;;;;0.63;0.50;;;13.20;99.90;;;;;;5015313;28;20202;-74
2021/05/25 10:59:05;;;;;;;1.33;0.60;;;13.40;99.90;;;;;;5032115;28;20678;-73
2021/05/25 11:01:31;;;;;;;4.40;0.80;;;13.40;99.90;;;;;;5013548;28;20451;-74
2021/05/25 11:04:12;;;;;;;1.23;0.67;;;13.60;99.90;;;;;;5031228;28;20443;-73
2021/05/25 11:06:39;;;;;;;0.73;0.67;;;14.10;99.90;;;;;;5031715;28;20475;-73
2021/05/25 11:09:29;;;;;;;0.97;0.60;;;14.70;99.90;;;;;;5012961;28;20427;-73
2021/05/25 11:12:16;;;;;;;1.50;0.53;;;14.70;99.90;;;;;;5031600;28;20420;-73
2021/05/25 11:15:17;;;;;;;2.30;0.80;;;14.40;99.90;;;;;;5013065;28;20436;-74
2021/05/25 11:17:48;;;;;;;1.40;0.60;;;14.10;99.90;;;;;;5031286;28;20448;-74
2021/05/25 11:20:39;;;;;;;4.17;0.70;;;13.80;99.90;;;;;;5031482;28;20409;-75
2021/05/25 11:23:58;;;;;;;2.73;0.60;;;13.20;99.90;;;;;;5030851;28;20494;-74
2021/05/25 11:27:15;;;;;;;4.30;0.97;;;12.50;99.90;;;;;;4991971;28;20587;-73
2021/05/25 11:29:41;;;;;;;0.93;0.50;;;11.80;99.90;;;;;;4931441;29;20431;-74
2021/05/25 11:32:15;;;;;;;1.60;0.50;;;11.80;99.90;;;;;;4913181;29;20836;-75
2021/05/25 11:34:42;;;;;;;1.00;0.50;;;12.30;99.90;;;;;;4972974;28;20339;-73
2021/05/25 11:37:11;;;;;;;0.80;0.50;;;12.70;99.90;;;;;;5011976;28;20855;-73
2021/05/25 11:39:37;;;;;;;0.60;0.50;;;12.70;99.90;;;;;;5028966;28;20436;-73
2021/05/25 11:42:06;;;;;;;0.70;0.60;;;12.80;99.90;;;;;;5031167;28;20423;-73
2021/05/25 11:44:44;;;;;;;0.80;0.50;;;12.80;99.90;;;;;;5012609;28;21004;-73
2021/05/25 11:47:11;;;;;;;3.60;0.60;;;12.90;99.90;;;;;;5030880;28;20546;-73
2021/05/25 11:49:42;;;;;;;0.87;0.70;;;13.10;99.90;;;;;;5031104;28;20413;-73
2021/05/25 11:52:23;;;;;;;1.03;0.60;;;13.60;99.90;;;;;;5030922;28;20413;-72
2021/05/25 11:54:50;;;;;;;2.03;0.60;;;14.00;99.90;;;;;;5030772;28;20421;-72
2021/05/25 11:57:32;;;;;;;1.33;0.60;;;14.40;99.90;;;;;;5031607;28;20433;-74
2021/05/25 12:00:02;;;;;;;1.83;0.50;;;14.50;99.90;;;;;;5013591;28;20515;-73
2021/05/25 12:02:30;;;;;;;2.00;0.70;;;14.70;99.90;;;;;;5013107;28;20421;-74
2021/05/25 12:05:09;;;;;;;0.70;0.53;;;14.90;99.90;;;;;;5034867;28;20464;-73
2021/05/25 12:07:37;;;;;;;2.47;0.70;;;14.90;99.90;;;;;;5035299;28;21060;-74
2021/05/25 12:10:05;;;;;;;3.23;0.50;;;15.10;99.90;;;;;;5035107;28;20906;-74
2021/05/25 12:12:31;;;;;;;5.27;0.80;;;15.30;99.90;;;;;;5034487;28;20424;-73
2021/05/25 12:15:08;;;;;;;1.03;0.57;;;15.30;99.90;;;;;;5020947;28;20417;-73
2021/05/25 12:17:39;;;;;;;2.53;0.60;;;15.60;99.90;;;;;;5034586;28;20205;-73
2021/05/25 12:20:06;;;;;;;3.00;0.60;;;15.70;99.90;;;;;;5034561;28;20647;-73
2021/05/25 12:22:35;;;;;;;1.33;0.57;;;15.60;99.90;;;;;;5034451;28;20421;-71
2021/05/25 12:25:27;;;;;;;1.07;0.73;;;15.70;99.90;;;;;;5034278;28;20511;-72
2021/05/25 12:28:16;;;;;;;2.40;0.70;;;16.10;99.90;;;;;;5034446;28;20567;-73
2021/05/25 12:30:48;;;;;;;3.60;0.70;;;16.20;99.90;;;;;;5034031;28;20500;-72
2021/05/25 12:33:34;;;;;;;1.13;0.60;;;15.90;99.90;;;;;;5034170;28;20438;-72
2021/05/25 12:36:23;;;;;;;1.07;0.60;;;15.70;99.90;;;;;;5016483;28;20507;-72
2021/05/25 12:38:55;;;;;;;0.60;0.50;;;15.70;99.90;;;;;;5016779;28;20417;-73
2021/05/25 12:41:20;;;;;;;3.23;0.60;;;15.50;99.90;;;;;;5033923;28;20424;-73
2021/05/25 12:43:46;;;;;;;1.33;0.60;;;15.40;99.90;;;;;;5033776;28;20937;-73
2021/05/25 12:46:11;;;;;;;3.23;0.83;;;15.40;99.90;;;;;;5034023;28;20251;-71
2021/05/25 12:48:42;;;;;;;4.00;0.93;;;15.70;99.90;;;;;;5034249;28;20245;-72
2021/05/25 12:51:10;;;;;;;1.90;0.70;;;15.90;99.90;;;;;;5034189;28;20588;-72
2021/05/25 12:53:51;;;;;;;4.57;0.90;;;16.20;99.90;;;;;;5033397;28;20952;-73
2021/05/25 12:56:19;;;;;;;2.10;0.70;;;16.40;99.90;;;;;;5033623;28;20899;-73
2021/05/25 12:58:46;;;;;;;2.10;0.50;;;16.10;99.90;;;;;;5034175;28;20444;-72
2021/05/25 13:01:22;;;;;;;1.80;0.53;;;16.20;99.90;;;;;;5034015;28;20424;-72